sensor_id;sensor_type;location;lat;lon;timestamp;P1;durP1;ratioP1;P2;durP2;ratioP2
51594;SDS011;37677;53.254;6.594;2023-07-24T00:00:21;9.35;;;6.88;;
51594;SDS011;37677;53.254;6.594;2023-07-24T00:02:59;8.55;;;6.68;;
51594;SDS011;37677;53.254;6.594;2023-07-24T00:08:16;10.77;;;7.20;;
51594;SDS011;37677;53.254;6.594;2023-07-24T00:10:53;10.40;;;6.93;;
51594;SDS011;37677;53.254;6.594;2023-07-24T00:13:19;10.68;;;6.68;;
51594;SDS011;37677;53.254;6.594;2023-07-24T00:15:45;8.88;;;6.72;;
51594;SDS011;37677;53.254;6.594;2023-07-24T00:18:27;11.50;;;6.70;;
51594;SDS011;37677;53.254;6.594;2023-07-24T00:23:22;8.77;;;6.10;;
51594;SDS011;37677;53.254;6.594;2023-07-24T00:25:48;9.48;;;6.90;;
51594;SDS011;37677;53.254;6.594;2023-07-24T00:28:14;7.18;;;5.88;;
51594;SDS011;37677;53.254;6.594;2023-07-24T00:30:41;8.30;;;5.78;;
51594;SDS011;37677;53.254;6.594;2023-07-24T00:33:09;8.63;;;6.40;;
51594;SDS011;37677;53.254;6.594;2023-07-24T00:35:35;11.45;;;6.93;;
51594;SDS011;37677;53.254;6.594;2023-07-24T00:38:01;10.48;;;6.65;;
51594;SDS011;37677;53.254;6.594;2023-07-24T00:40:27;8.27;;;6.28;;
51594;SDS011;37677;53.254;6.594;2023-07-24T00:42:53;9.10;;;6.63;;
51594;SDS011;37677;53.254;6.594;2023-07-24T00:45:19;7.72;;;6.38;;
51594;SDS011;37677;53.254;6.594;2023-07-24T00:47:45;8.88;;;6.40;;
51594;SDS011;37677;53.254;6.594;2023-07-24T00:50:11;11.05;;;7.13;;
51594;SDS011;37677;53.254;6.594;2023-07-24T00:52:38;9.65;;;6.55;;
51594;SDS011;37677;53.254;6.594;2023-07-24T00:55:04;9.27;;;6.70;;
51594;SDS011;37677;53.254;6.594;2023-07-24T00:57:31;9.93;;;6.80;;
51594;SDS011;37677;53.254;6.594;2023-07-24T00:59:58;7.72;;;5.88;;
51594;SDS011;37677;53.254;6.594;2023-07-24T01:02:25;8.32;;;6.30;;
51594;SDS011;37677;53.254;6.594;2023-07-24T01:04:51;8.38;;;6.88;;
51594;SDS011;37677;53.254;6.594;2023-07-24T01:07:17;11.63;;;6.35;;
51594;SDS011;37677;53.254;6.594;2023-07-24T01:09:44;9.40;;;6.72;;
51594;SDS011;37677;53.254;6.594;2023-07-24T01:17:05;9.90;;;7.10;;
51594;SDS011;37677;53.254;6.594;2023-07-24T01:19:41;12.27;;;7.03;;
51594;SDS011;37677;53.254;6.594;2023-07-24T01:27:44;14.07;;;8.38;;
51594;SDS011;37677;53.254;6.594;2023-07-24T01:30:16;17.70;;;8.88;;
51594;SDS011;37677;53.254;6.594;2023-07-24T01:32:42;13.70;;;8.00;;
51594;SDS011;37677;53.254;6.594;2023-07-24T01:35:09;9.63;;;7.38;;
51594;SDS011;37677;53.254;6.594;2023-07-24T01:37:35;12.25;;;8.48;;
51594;SDS011;37677;53.254;6.594;2023-07-24T01:40:04;9.40;;;7.35;;
51594;SDS011;37677;53.254;6.594;2023-07-24T01:42:33;12.68;;;8.98;;
51594;SDS011;37677;53.254;6.594;2023-07-24T01:44:59;12.93;;;8.93;;
51594;SDS011;37677;53.254;6.594;2023-07-24T01:47:26;12.55;;;9.70;;
51594;SDS011;37677;53.254;6.594;2023-07-24T01:49:52;9.45;;;8.30;;
51594;SDS011;37677;53.254;6.594;2023-07-24T01:52:19;13.75;;;9.13;;
51594;SDS011;37677;53.254;6.594;2023-07-24T01:54:45;12.55;;;8.95;;
51594;SDS011;37677;53.254;6.594;2023-07-24T01:57:11;13.38;;;9.30;;
51594;SDS011;37677;53.254;6.594;2023-07-24T01:59:37;10.15;;;9.10;;
51594;SDS011;37677;53.254;6.594;2023-07-24T02:02:03;11.10;;;9.38;;
51594;SDS011;37677;53.254;6.594;2023-07-24T02:04:30;12.18;;;9.50;;
51594;SDS011;37677;53.254;6.594;2023-07-24T02:06:56;10.40;;;8.48;;
51594;SDS011;37677;53.254;6.594;2023-07-24T02:09:22;10.75;;;9.15;;
51594;SDS011;37677;53.254;6.594;2023-07-24T02:11:48;11.52;;;10.00;;
51594;SDS011;37677;53.254;6.594;2023-07-24T02:14:14;11.38;;;10.25;;
51594;SDS011;37677;53.254;6.594;2023-07-24T02:16:42;11.68;;;8.55;;
51594;SDS011;37677;53.254;6.594;2023-07-24T02:19:08;12.73;;;10.35;;
51594;SDS011;37677;53.254;6.594;2023-07-24T02:21:34;11.82;;;10.73;;
51594;SDS011;37677;53.254;6.594;2023-07-24T02:24:00;12.63;;;11.27;;
51594;SDS011;37677;53.254;6.594;2023-07-24T02:26:26;12.00;;;10.40;;
51594;SDS011;37677;53.254;6.594;2023-07-24T02:28:52;12.52;;;9.45;;
51594;SDS011;37677;53.254;6.594;2023-07-24T02:31:19;10.82;;;9.43;;
51594;SDS011;37677;53.254;6.594;2023-07-24T02:33:45;10.23;;;9.20;;
51594;SDS011;37677;53.254;6.594;2023-07-24T02:36:11;11.55;;;10.35;;
51594;SDS011;37677;53.254;6.594;2023-07-24T02:38:37;11.63;;;9.93;;
51594;SDS011;37677;53.254;6.594;2023-07-24T02:41:03;11.48;;;10.27;;
51594;SDS011;37677;53.254;6.594;2023-07-24T02:43:29;13.20;;;9.38;;
51594;SDS011;37677;53.254;6.594;2023-07-24T02:45:59;12.57;;;10.63;;
51594;SDS011;37677;53.254;6.594;2023-07-24T02:48:26;14.60;;;10.05;;
51594;SDS011;37677;53.254;6.594;2023-07-24T02:50:53;11.25;;;10.02;;
51594;SDS011;37677;53.254;6.594;2023-07-24T02:53:20;13.30;;;11.48;;
51594;SDS011;37677;53.254;6.594;2023-07-24T02:55:46;12.07;;;10.90;;
51594;SDS011;37677;53.254;6.594;2023-07-24T02:58:12;13.45;;;11.77;;
51594;SDS011;37677;53.254;6.594;2023-07-24T03:00:38;11.65;;;10.48;;
51594;SDS011;37677;53.254;6.594;2023-07-24T03:03:04;14.48;;;12.15;;
51594;SDS011;37677;53.254;6.594;2023-07-24T03:05:33;18.25;;;12.15;;
51594;SDS011;37677;53.254;6.594;2023-07-24T03:08:00;12.80;;;11.02;;
51594;SDS011;37677;53.254;6.594;2023-07-24T03:10:26;14.43;;;11.88;;
51594;SDS011;37677;53.254;6.594;2023-07-24T03:12:53;13.10;;;11.77;;
51594;SDS011;37677;53.254;6.594;2023-07-24T03:15:19;10.93;;;9.65;;
51594;SDS011;37677;53.254;6.594;2023-07-24T03:17:45;12.95;;;10.63;;
51594;SDS011;37677;53.254;6.594;2023-07-24T03:20:13;11.68;;;10.43;;
51594;SDS011;37677;53.254;6.594;2023-07-24T03:22:41;11.50;;;10.38;;
51594;SDS011;37677;53.254;6.594;2023-07-24T03:25:07;13.57;;;10.13;;
51594;SDS011;37677;53.254;6.594;2023-07-24T03:27:33;11.05;;;9.90;;
51594;SDS011;37677;53.254;6.594;2023-07-24T03:30:00;12.82;;;10.20;;
51594;SDS011;37677;53.254;6.594;2023-07-24T03:32:26;10.35;;;9.35;;
51594;SDS011;37677;53.254;6.594;2023-07-24T03:34:52;17.08;;;9.93;;
51594;SDS011;37677;53.254;6.594;2023-07-24T03:37:18;10.25;;;9.05;;
51594;SDS011;37677;53.254;6.594;2023-07-24T03:39:44;13.55;;;9.40;;
51594;SDS011;37677;53.254;6.594;2023-07-24T03:42:10;14.35;;;9.90;;
51594;SDS011;37677;53.254;6.594;2023-07-24T03:44:40;12.88;;;8.63;;
51594;SDS011;37677;53.254;6.594;2023-07-24T03:47:06;16.25;;;9.00;;
51594;SDS011;37677;53.254;6.594;2023-07-24T03:49:33;11.30;;;8.43;;
51594;SDS011;37677;53.254;6.594;2023-07-24T03:51:59;13.30;;;9.85;;
51594;SDS011;37677;53.254;6.594;2023-07-24T03:54:25;11.93;;;7.75;;
51594;SDS011;37677;53.254;6.594;2023-07-24T03:56:51;10.98;;;8.32;;
51594;SDS011;37677;53.254;6.594;2023-07-24T03:59:20;13.07;;;9.63;;
51594;SDS011;37677;53.254;6.594;2023-07-24T04:01:46;11.68;;;8.70;;
51594;SDS011;37677;53.254;6.594;2023-07-24T04:04:12;8.82;;;7.93;;
51594;SDS011;37677;53.254;6.594;2023-07-24T04:06:38;10.32;;;8.43;;
51594;SDS011;37677;53.254;6.594;2023-07-24T04:09:06;11.80;;;8.48;;
51594;SDS011;37677;53.254;6.594;2023-07-24T04:11:32;12.20;;;8.15;;
51594;SDS011;37677;53.254;6.594;2023-07-24T04:13:58;9.20;;;8.02;;
51594;SDS011;37677;53.254;6.594;2023-07-24T04:16:24;12.43;;;8.43;;
51594;SDS011;37677;53.254;6.594;2023-07-24T04:18:55;11.77;;;8.32;;
51594;SDS011;37677;53.254;6.594;2023-07-24T04:21:22;10.98;;;8.07;;
51594;SDS011;37677;53.254;6.594;2023-07-24T04:23:48;13.52;;;8.07;;
51594;SDS011;37677;53.254;6.594;2023-07-24T04:26:14;11.70;;;7.57;;
51594;SDS011;37677;53.254;6.594;2023-07-24T04:28:40;12.70;;;8.30;;
51594;SDS011;37677;53.254;6.594;2023-07-24T04:31:06;9.20;;;7.20;;
51594;SDS011;37677;53.254;6.594;2023-07-24T04:33:32;11.98;;;7.80;;
51594;SDS011;37677;53.254;6.594;2023-07-24T04:35:58;10.77;;;7.93;;
51594;SDS011;37677;53.254;6.594;2023-07-24T04:40:56;9.30;;;8.13;;
51594;SDS011;37677;53.254;6.594;2023-07-24T04:43:24;9.50;;;7.53;;
51594;SDS011;37677;53.254;6.594;2023-07-24T04:45:51;10.30;;;8.40;;
51594;SDS011;37677;53.254;6.594;2023-07-24T04:48:17;10.50;;;8.95;;
51594;SDS011;37677;53.254;6.594;2023-07-24T04:50:44;9.80;;;8.55;;
51594;SDS011;37677;53.254;6.594;2023-07-24T04:53:13;10.02;;;8.82;;
51594;SDS011;37677;53.254;6.594;2023-07-24T04:55:39;11.10;;;8.80;;
51594;SDS011;37677;53.254;6.594;2023-07-24T04:58:05;9.55;;;8.55;;
51594;SDS011;37677;53.254;6.594;2023-07-24T05:00:34;9.98;;;8.82;;
51594;SDS011;37677;53.254;6.594;2023-07-24T05:03:02;12.57;;;9.23;;
51594;SDS011;37677;53.254;6.594;2023-07-24T05:05:28;10.35;;;9.32;;
51594;SDS011;37677;53.254;6.594;2023-07-24T05:07:56;9.73;;;8.73;;
51594;SDS011;37677;53.254;6.594;2023-07-24T05:10:23;10.80;;;8.68;;
51594;SDS011;37677;53.254;6.594;2023-07-24T05:12:49;8.98;;;8.07;;
51594;SDS011;37677;53.254;6.594;2023-07-24T05:15:15;9.90;;;8.90;;
51594;SDS011;37677;53.254;6.594;2023-07-24T05:17:42;10.68;;;9.40;;
51594;SDS011;37677;53.254;6.594;2023-07-24T05:20:08;11.00;;;8.88;;
51594;SDS011;37677;53.254;6.594;2023-07-24T05:22:35;10.07;;;8.75;;
51594;SDS011;37677;53.254;6.594;2023-07-24T05:25:02;11.32;;;9.23;;
51594;SDS011;37677;53.254;6.594;2023-07-24T05:27:28;10.25;;;9.32;;
51594;SDS011;37677;53.254;6.594;2023-07-24T05:29:55;11.05;;;9.02;;
51594;SDS011;37677;53.254;6.594;2023-07-24T05:32:28;10.38;;;9.38;;
51594;SDS011;37677;53.254;6.594;2023-07-24T05:34:54;11.18;;;9.70;;
51594;SDS011;37677;53.254;6.594;2023-07-24T05:37:20;11.23;;;9.93;;
51594;SDS011;37677;53.254;6.594;2023-07-24T05:39:46;11.02;;;9.32;;
51594;SDS011;37677;53.254;6.594;2023-07-24T05:42:12;10.52;;;9.48;;
51594;SDS011;37677;53.254;6.594;2023-07-24T05:44:39;10.25;;;9.25;;
51594;SDS011;37677;53.254;6.594;2023-07-24T05:47:05;11.00;;;9.85;;
51594;SDS011;37677;53.254;6.594;2023-07-24T05:49:31;11.23;;;10.10;;
51594;SDS011;37677;53.254;6.594;2023-07-24T05:51:58;11.27;;;9.45;;
51594;SDS011;37677;53.254;6.594;2023-07-24T05:54:24;10.48;;;9.38;;
51594;SDS011;37677;53.254;6.594;2023-07-24T05:56:51;10.50;;;9.40;;
51594;SDS011;37677;53.254;6.594;2023-07-24T05:59:18;10.77;;;9.35;;
51594;SDS011;37677;53.254;6.594;2023-07-24T06:01:44;11.90;;;10.32;;
51594;SDS011;37677;53.254;6.594;2023-07-24T06:04:10;11.35;;;9.50;;
51594;SDS011;37677;53.254;6.594;2023-07-24T06:06:42;10.77;;;9.68;;
51594;SDS011;37677;53.254;6.594;2023-07-24T06:09:09;11.00;;;9.90;;
51594;SDS011;37677;53.254;6.594;2023-07-24T06:11:36;10.70;;;9.68;;
51594;SDS011;37677;53.254;6.594;2023-07-24T06:14:03;10.52;;;8.63;;
51594;SDS011;37677;53.254;6.594;2023-07-24T06:16:29;11.40;;;9.93;;
51594;SDS011;37677;53.254;6.594;2023-07-24T06:18:55;10.88;;;9.77;;
51594;SDS011;37677;53.254;6.594;2023-07-24T06:21:21;17.65;;;10.35;;
51594;SDS011;37677;53.254;6.594;2023-07-24T06:23:47;11.20;;;10.02;;
51594;SDS011;37677;53.254;6.594;2023-07-24T06:26:13;13.93;;;9.63;;
51594;SDS011;37677;53.254;6.594;2023-07-24T06:28:39;12.00;;;9.57;;
51594;SDS011;37677;53.254;6.594;2023-07-24T06:31:05;12.60;;;10.48;;
51594;SDS011;37677;53.254;6.594;2023-07-24T06:33:31;11.35;;;10.13;;
51594;SDS011;37677;53.254;6.594;2023-07-24T06:35:57;13.07;;;9.15;;
51594;SDS011;37677;53.254;6.594;2023-07-24T06:38:24;11.02;;;9.93;;
51594;SDS011;37677;53.254;6.594;2023-07-24T06:40:54;14.15;;;9.65;;
51594;SDS011;37677;53.254;6.594;2023-07-24T06:43:29;12.63;;;9.80;;
51594;SDS011;37677;53.254;6.594;2023-07-24T06:45:56;11.82;;;8.98;;
51594;SDS011;37677;53.254;6.594;2023-07-24T06:52:04;13.75;;;9.30;;
51594;SDS011;37677;53.254;6.594;2023-07-24T06:54:32;14.25;;;9.63;;
51594;SDS011;37677;53.254;6.594;2023-07-24T07:00:13;11.38;;;8.43;;
51594;SDS011;37677;53.254;6.594;2023-07-24T07:03:00;12.77;;;9.15;;
51594;SDS011;37677;53.254;6.594;2023-07-24T07:05:26;10.93;;;8.95;;
51594;SDS011;37677;53.254;6.594;2023-07-24T07:07:53;9.90;;;8.90;;
51594;SDS011;37677;53.254;6.594;2023-07-24T07:10:20;14.02;;;9.13;;
51594;SDS011;37677;53.254;6.594;2023-07-24T07:12:49;12.20;;;9.30;;
51594;SDS011;37677;53.254;6.594;2023-07-24T07:15:17;14.77;;;8.93;;
51594;SDS011;37677;53.254;6.594;2023-07-24T07:17:44;10.77;;;8.43;;
51594;SDS011;37677;53.254;6.594;2023-07-24T07:20:10;10.55;;;8.85;;
51594;SDS011;37677;53.254;6.594;2023-07-24T07:22:36;11.57;;;8.68;;
51594;SDS011;37677;53.254;6.594;2023-07-24T07:25:02;12.43;;;8.98;;
51594;SDS011;37677;53.254;6.594;2023-07-24T07:27:29;12.85;;;8.45;;
51594;SDS011;37677;53.254;6.594;2023-07-24T07:29:55;14.20;;;9.38;;
51594;SDS011;37677;53.254;6.594;2023-07-24T07:32:21;11.18;;;8.63;;
51594;SDS011;37677;53.254;6.594;2023-07-24T07:34:50;11.50;;;9.63;;
51594;SDS011;37677;53.254;6.594;2023-07-24T07:37:17;10.98;;;8.68;;
51594;SDS011;37677;53.254;6.594;2023-07-24T07:39:44;14.05;;;9.48;;
51594;SDS011;37677;53.254;6.594;2023-07-24T07:42:10;13.80;;;9.45;;
51594;SDS011;37677;53.254;6.594;2023-07-24T07:44:36;14.27;;;9.48;;
51594;SDS011;37677;53.254;6.594;2023-07-24T07:47:09;13.10;;;9.35;;
51594;SDS011;37677;53.254;6.594;2023-07-24T07:49:35;14.23;;;9.18;;
51594;SDS011;37677;53.254;6.594;2023-07-24T07:52:13;15.13;;;10.13;;
51594;SDS011;37677;53.254;6.594;2023-07-24T07:54:45;12.80;;;9.25;;
51594;SDS011;37677;53.254;6.594;2023-07-24T07:57:19;15.77;;;10.15;;
51594;SDS011;37677;53.254;6.594;2023-07-24T08:09:49;12.75;;;9.25;;
51594;SDS011;37677;53.254;6.594;2023-07-24T08:18:57;13.00;;;8.63;;
51594;SDS011;37677;53.254;6.594;2023-07-24T08:24:39;14.98;;;9.18;;
51594;SDS011;37677;53.254;6.594;2023-07-24T08:36:07;10.75;;;8.07;;
51594;SDS011;37677;53.254;6.594;2023-07-24T08:38:46;13.52;;;7.97;;
51594;SDS011;37677;53.254;6.594;2023-07-24T08:42:10;15.30;;;7.25;;
51594;SDS011;37677;53.254;6.594;2023-07-24T08:45:32;11.98;;;7.78;;
51594;SDS011;37677;53.254;6.594;2023-07-24T08:48:09;14.70;;;7.70;;
51594;SDS011;37677;53.254;6.594;2023-07-24T08:50:46;17.27;;;8.50;;
51594;SDS011;37677;53.254;6.594;2023-07-24T08:53:22;13.98;;;8.15;;
51594;SDS011;37677;53.254;6.594;2023-07-24T08:56:00;14.38;;;7.95;;
51594;SDS011;37677;53.254;6.594;2023-07-24T09:05:06;14.43;;;7.63;;
51594;SDS011;37677;53.254;6.594;2023-07-24T09:07:37;11.65;;;7.68;;
51594;SDS011;37677;53.254;6.594;2023-07-24T09:13:13;15.50;;;8.05;;
51594;SDS011;37677;53.254;6.594;2023-07-24T09:15:42;10.57;;;7.22;;
51594;SDS011;37677;53.254;6.594;2023-07-24T09:18:12;12.43;;;7.10;;
51594;SDS011;37677;53.254;6.594;2023-07-24T09:20:40;14.30;;;7.50;;
51594;SDS011;37677;53.254;6.594;2023-07-24T09:23:07;12.20;;;7.40;;
51594;SDS011;37677;53.254;6.594;2023-07-24T09:25:34;15.25;;;7.72;;
51594;SDS011;37677;53.254;6.594;2023-07-24T09:28:08;10.93;;;7.50;;
51594;SDS011;37677;53.254;6.594;2023-07-24T09:30:34;17.15;;;7.57;;
51594;SDS011;37677;53.254;6.594;2023-07-24T09:33:03;14.10;;;7.45;;
51594;SDS011;37677;53.254;6.594;2023-07-24T09:35:30;12.10;;;7.15;;
51594;SDS011;37677;53.254;6.594;2023-07-24T09:40:52;12.57;;;6.57;;
51594;SDS011;37677;53.254;6.594;2023-07-24T09:43:21;11.07;;;7.22;;
51594;SDS011;37677;53.254;6.594;2023-07-24T09:45:48;13.80;;;7.30;;
51594;SDS011;37677;53.254;6.594;2023-07-24T09:48:17;15.18;;;7.45;;
51594;SDS011;37677;53.254;6.594;2023-07-24T09:50:46;13.88;;;6.80;;
51594;SDS011;37677;53.254;6.594;2023-07-24T09:53:17;13.05;;;7.03;;
51594;SDS011;37677;53.254;6.594;2023-07-24T09:58:16;12.55;;;6.78;;
51594;SDS011;37677;53.254;6.594;2023-07-24T10:00:43;12.02;;;6.65;;
51594;SDS011;37677;53.254;6.594;2023-07-24T10:03:10;12.07;;;6.60;;
51594;SDS011;37677;53.254;6.594;2023-07-24T10:05:37;12.80;;;6.72;;
51594;SDS011;37677;53.254;6.594;2023-07-24T10:08:07;10.15;;;6.43;;
51594;SDS011;37677;53.254;6.594;2023-07-24T10:10:38;10.57;;;6.00;;
51594;SDS011;37677;53.254;6.594;2023-07-24T10:13:06;10.90;;;6.43;;
51594;SDS011;37677;53.254;6.594;2023-07-24T10:15:39;10.98;;;6.03;;
51594;SDS011;37677;53.254;6.594;2023-07-24T10:18:06;8.65;;;5.57;;
51594;SDS011;37677;53.254;6.594;2023-07-24T10:20:35;9.23;;;5.63;;
51594;SDS011;37677;53.254;6.594;2023-07-24T10:23:07;9.52;;;5.95;;
51594;SDS011;37677;53.254;6.594;2023-07-24T10:25:37;7.95;;;5.55;;
51594;SDS011;37677;53.254;6.594;2023-07-24T10:28:06;10.60;;;6.28;;
51594;SDS011;37677;53.254;6.594;2023-07-24T10:30:35;12.38;;;6.25;;
51594;SDS011;37677;53.254;6.594;2023-07-24T10:33:07;10.85;;;7.65;;
51594;SDS011;37677;53.254;6.594;2023-07-24T10:35:40;8.20;;;6.60;;
51594;SDS011;37677;53.254;6.594;2023-07-24T10:38:10;10.23;;;6.57;;
51594;SDS011;37677;53.254;6.594;2023-07-24T10:40:39;8.00;;;6.55;;
51594;SDS011;37677;53.254;6.594;2023-07-24T10:43:19;8.60;;;6.10;;
51594;SDS011;37677;53.254;6.594;2023-07-24T10:45:51;8.13;;;4.65;;
51594;SDS011;37677;53.254;6.594;2023-07-24T10:48:27;6.70;;;3.95;;
51594;SDS011;37677;53.254;6.594;2023-07-24T10:54:20;6.95;;;3.80;;
51594;SDS011;37677;53.254;6.594;2023-07-24T10:57:08;6.35;;;3.55;;
51594;SDS011;37677;53.254;6.594;2023-07-24T10:59:52;6.75;;;3.55;;
51594;SDS011;37677;53.254;6.594;2023-07-24T11:03:03;8.00;;;3.80;;
51594;SDS011;37677;53.254;6.594;2023-07-24T11:05:38;6.55;;;4.10;;
51594;SDS011;37677;53.254;6.594;2023-07-24T11:11:37;5.45;;;3.90;;
51594;SDS011;37677;53.254;6.594;2023-07-24T11:20:33;7.53;;;4.70;;
51594;SDS011;37677;53.254;6.594;2023-07-24T11:23:32;8.65;;;4.57;;
51594;SDS011;37677;53.254;6.594;2023-07-24T11:26:00;9.02;;;5.10;;
51594;SDS011;37677;53.254;6.594;2023-07-24T11:28:49;7.95;;;4.10;;
51594;SDS011;37677;53.254;6.594;2023-07-24T11:31:36;6.38;;;4.78;;
51594;SDS011;37677;53.254;6.594;2023-07-24T11:34:05;9.52;;;5.78;;
51594;SDS011;37677;53.254;6.594;2023-07-24T11:36:32;7.75;;;5.32;;
51594;SDS011;37677;53.254;6.594;2023-07-24T11:38:58;9.25;;;5.30;;
51594;SDS011;37677;53.254;6.594;2023-07-24T11:41:25;7.22;;;5.35;;
51594;SDS011;37677;53.254;6.594;2023-07-24T11:43:51;8.15;;;5.40;;
51594;SDS011;37677;53.254;6.594;2023-07-24T11:46:27;9.05;;;5.63;;
51594;SDS011;37677;53.254;6.594;2023-07-24T11:48:54;12.57;;;5.93;;
51594;SDS011;37677;53.254;6.594;2023-07-24T11:51:29;11.38;;;6.07;;
51594;SDS011;37677;53.254;6.594;2023-07-24T11:54:06;11.05;;;5.78;;
51594;SDS011;37677;53.254;6.594;2023-07-24T11:56:32;7.83;;;5.23;;
51594;SDS011;37677;53.254;6.594;2023-07-24T11:59:20;6.72;;;5.13;;
51594;SDS011;37677;53.254;6.594;2023-07-24T12:01:47;12.30;;;5.15;;
51594;SDS011;37677;53.254;6.594;2023-07-24T12:04:19;7.97;;;4.78;;
51594;SDS011;37677;53.254;6.594;2023-07-24T12:06:59;6.47;;;4.53;;
51594;SDS011;37677;53.254;6.594;2023-07-24T12:09:29;7.15;;;4.50;;
51594;SDS011;37677;53.254;6.594;2023-07-24T12:12:08;8.23;;;4.72;;
51594;SDS011;37677;53.254;6.594;2023-07-24T12:14:49;5.32;;;3.75;;
51594;SDS011;37677;53.254;6.594;2023-07-24T12:17:18;6.15;;;4.35;;
51594;SDS011;37677;53.254;6.594;2023-07-24T12:19:45;8.13;;;4.57;;
51594;SDS011;37677;53.254;6.594;2023-07-24T12:22:12;9.20;;;4.93;;
51594;SDS011;37677;53.254;6.594;2023-07-24T12:24:39;14.45;;;6.80;;
51594;SDS011;37677;53.254;6.594;2023-07-24T12:27:05;17.15;;;7.63;;
51594;SDS011;37677;53.254;6.594;2023-07-24T12:29:39;14.43;;;7.45;;
51594;SDS011;37677;53.254;6.594;2023-07-24T12:32:05;16.10;;;7.40;;
51594;SDS011;37677;53.254;6.594;2023-07-24T12:34:31;15.27;;;7.35;;
51594;SDS011;37677;53.254;6.594;2023-07-24T12:36:59;12.38;;;8.40;;
51594;SDS011;37677;53.254;6.594;2023-07-24T12:39:36;10.15;;;7.47;;
51594;SDS011;37677;53.254;6.594;2023-07-24T12:44:49;10.50;;;7.13;;
51594;SDS011;37677;53.254;6.594;2023-07-24T12:47:15;11.57;;;7.20;;
51594;SDS011;37677;53.254;6.594;2023-07-24T12:49:41;10.43;;;7.47;;
51594;SDS011;37677;53.254;6.594;2023-07-24T12:52:07;10.82;;;8.20;;
51594;SDS011;37677;53.254;6.594;2023-07-24T12:54:33;14.38;;;8.15;;
51594;SDS011;37677;53.254;6.594;2023-07-24T12:57:00;12.50;;;8.75;;
51594;SDS011;37677;53.254;6.594;2023-07-24T12:59:29;11.85;;;8.30;;
51594;SDS011;37677;53.254;6.594;2023-07-24T13:01:56;14.82;;;9.00;;
51594;SDS011;37677;53.254;6.594;2023-07-24T13:04:22;16.02;;;9.85;;
51594;SDS011;37677;53.254;6.594;2023-07-24T13:06:48;8.95;;;7.38;;
51594;SDS011;37677;53.254;6.594;2023-07-24T13:09:14;11.27;;;7.68;;
51594;SDS011;37677;53.254;6.594;2023-07-24T13:11:40;10.30;;;9.13;;
51594;SDS011;37677;53.254;6.594;2023-07-24T13:14:06;12.80;;;7.88;;
51594;SDS011;37677;53.254;6.594;2023-07-24T13:16:32;12.13;;;8.48;;
51594;SDS011;37677;53.254;6.594;2023-07-24T13:18:58;10.43;;;7.53;;
51594;SDS011;37677;53.254;6.594;2023-07-24T13:21:25;16.30;;;7.97;;
51594;SDS011;37677;53.254;6.594;2023-07-24T13:23:51;10.00;;;7.68;;
51594;SDS011;37677;53.254;6.594;2023-07-24T13:26:17;13.13;;;7.85;;
51594;SDS011;37677;53.254;6.594;2023-07-24T13:28:43;9.85;;;7.35;;
51594;SDS011;37677;53.254;6.594;2023-07-24T13:31:13;8.40;;;7.57;;
51594;SDS011;37677;53.254;6.594;2023-07-24T13:33:39;6.80;;;4.47;;
51594;SDS011;37677;53.254;6.594;2023-07-24T13:36:05;5.10;;;4.00;;
51594;SDS011;37677;53.254;6.594;2023-07-24T13:38:31;4.65;;;3.33;;
51594;SDS011;37677;53.254;6.594;2023-07-24T13:41:00;5.55;;;2.83;;
51594;SDS011;37677;53.254;6.594;2023-07-24T13:43:27;6.72;;;3.45;;
51594;SDS011;37677;53.254;6.594;2023-07-24T13:45:53;9.15;;;3.22;;
51594;SDS011;37677;53.254;6.594;2023-07-24T13:48:19;6.65;;;2.90;;
51594;SDS011;37677;53.254;6.594;2023-07-24T13:50:45;11.15;;;3.00;;
51594;SDS011;37677;53.254;6.594;2023-07-24T13:53:11;8.88;;;3.33;;
51594;SDS011;37677;53.254;6.594;2023-07-24T13:55:38;7.65;;;2.97;;
51594;SDS011;37677;53.254;6.594;2023-07-24T13:58:04;7.47;;;2.85;;
51594;SDS011;37677;53.254;6.594;2023-07-24T14:00:30;5.85;;;2.97;;
51594;SDS011;37677;53.254;6.594;2023-07-24T14:02:56;8.50;;;3.00;;
51594;SDS011;37677;53.254;6.594;2023-07-24T14:05:22;7.57;;;3.00;;
51594;SDS011;37677;53.254;6.594;2023-07-24T14:07:48;7.50;;;3.20;;
51594;SDS011;37677;53.254;6.594;2023-07-24T14:10:14;10.60;;;4.30;;
51594;SDS011;37677;53.254;6.594;2023-07-24T14:12:40;9.73;;;3.55;;
51594;SDS011;37677;53.254;6.594;2023-07-24T14:15:06;16.42;;;4.55;;
51594;SDS011;37677;53.254;6.594;2023-07-24T14:17:33;14.30;;;3.80;;
51594;SDS011;37677;53.254;6.594;2023-07-24T14:20:00;12.98;;;3.95;;
51594;SDS011;37677;53.254;6.594;2023-07-24T14:22:26;12.25;;;3.90;;
51594;SDS011;37677;53.254;6.594;2023-07-24T14:24:53;11.38;;;3.78;;
51594;SDS011;37677;53.254;6.594;2023-07-24T14:27:19;10.82;;;3.70;;
51594;SDS011;37677;53.254;6.594;2023-07-24T14:29:45;10.20;;;3.42;;
51594;SDS011;37677;53.254;6.594;2023-07-24T14:32:11;10.45;;;3.63;;
51594;SDS011;37677;53.254;6.594;2023-07-24T14:34:37;9.55;;;3.53;;
51594;SDS011;37677;53.254;6.594;2023-07-24T14:37:03;12.25;;;3.63;;
51594;SDS011;37677;53.254;6.594;2023-07-24T14:39:31;9.85;;;3.97;;
51594;SDS011;37677;53.254;6.594;2023-07-24T14:41:57;14.73;;;3.47;;
51594;SDS011;37677;53.254;6.594;2023-07-24T14:44:23;10.73;;;3.05;;
51594;SDS011;37677;53.254;6.594;2023-07-24T14:46:49;8.95;;;3.08;;
51594;SDS011;37677;53.254;6.594;2023-07-24T14:49:15;9.10;;;3.15;;
51594;SDS011;37677;53.254;6.594;2023-07-24T14:51:41;8.20;;;2.92;;
51594;SDS011;37677;53.254;6.594;2023-07-24T14:54:07;9.95;;;2.80;;
51594;SDS011;37677;53.254;6.594;2023-07-24T14:56:33;11.90;;;2.60;;
51594;SDS011;37677;53.254;6.594;2023-07-24T14:58:59;9.60;;;2.78;;
51594;SDS011;37677;53.254;6.594;2023-07-24T15:01:26;8.20;;;2.53;;
51594;SDS011;37677;53.254;6.594;2023-07-24T15:03:54;7.35;;;2.50;;
51594;SDS011;37677;53.254;6.594;2023-07-24T15:06:20;6.63;;;2.47;;
51594;SDS011;37677;53.254;6.594;2023-07-24T15:08:46;8.95;;;2.75;;
51594;SDS011;37677;53.254;6.594;2023-07-24T15:11:12;7.55;;;2.25;;
51594;SDS011;37677;53.254;6.594;2023-07-24T15:13:38;8.68;;;2.13;;
51594;SDS011;37677;53.254;6.594;2023-07-24T15:16:07;9.40;;;2.22;;
51594;SDS011;37677;53.254;6.594;2023-07-24T15:18:33;8.13;;;2.47;;
51594;SDS011;37677;53.254;6.594;2023-07-24T15:21:00;6.32;;;2.20;;
51594;SDS011;37677;53.254;6.594;2023-07-24T15:23:26;6.85;;;2.53;;
51594;SDS011;37677;53.254;6.594;2023-07-24T15:25:52;9.95;;;2.70;;
51594;SDS011;37677;53.254;6.594;2023-07-24T15:28:18;7.25;;;2.55;;
51594;SDS011;37677;53.254;6.594;2023-07-24T15:30:44;7.38;;;2.30;;
51594;SDS011;37677;53.254;6.594;2023-07-24T15:33:10;6.10;;;2.35;;
51594;SDS011;37677;53.254;6.594;2023-07-24T15:40:55;8.05;;;2.60;;
51594;SDS011;37677;53.254;6.594;2023-07-24T15:43:21;6.05;;;2.30;;
51594;SDS011;37677;53.254;6.594;2023-07-24T15:45:52;6.70;;;2.17;;
51594;SDS011;37677;53.254;6.594;2023-07-24T15:48:18;10.05;;;2.78;;
51594;SDS011;37677;53.254;6.594;2023-07-24T15:50:44;3.35;;;1.73;;
51594;SDS011;37677;53.254;6.594;2023-07-24T15:53:11;6.00;;;2.08;;
51594;SDS011;37677;53.254;6.594;2023-07-24T15:55:37;5.03;;;2.20;;
51594;SDS011;37677;53.254;6.594;2023-07-24T15:58:04;6.03;;;2.10;;
51594;SDS011;37677;53.254;6.594;2023-07-24T16:00:31;5.45;;;1.70;;
51594;SDS011;37677;53.254;6.594;2023-07-24T16:06:12;3.75;;;1.95;;
51594;SDS011;37677;53.254;6.594;2023-07-24T16:44:58;4.85;;;1.88;;
51594;SDS011;37677;53.254;6.594;2023-07-24T16:47:25;5.80;;;1.48;;
51594;SDS011;37677;53.254;6.594;2023-07-24T17:21:08;5.10;;;2.25;;
51594;SDS011;37677;53.254;6.594;2023-07-24T17:36:59;6.47;;;2.42;;
51594;SDS011;37677;53.254;6.594;2023-07-24T17:42:57;5.88;;;2.00;;